Terminal Aerodrome Forecast
Issued by NWS St Louis, MO

Home | Current Version | Previous Version | Text Only | Print | Product List | Glossary On
Versions: 1 2 3 4 5 6 7 8 9 10 11 12 13 14 15 16 17 18 19 20 21 22 23 24 25 26 27 28
619
FTUS43 KLSX 172052 AAB
TAFSTL
TAF AMD
KSTL 172052Z 1721/1824 15012G23KT P6SM OVC025
      TEMPO 1721/1723 SCT025
     FM172300 18013G22KT P6SM OVC015
     FM181100 21012KT 5SM -SHRA VCTS OVC015CB
     FM181400 25012G23KT 5SM -SHRA OVC025
     FM181600 31020G33KT 6SM -SHRA OVC025
     FM182100 31020G33KT P6SM BKN040=

USA.gov is the U.S. government's official web portal to all federal, state and local government web resources and services.